Orange, Connecticut
Current Conditions -  °F | °C
As of 12:53 PM on Saturday 20 Dec 2014 (Local Time) from KHVN Reporting Station
Overcast Overcast  
Wind Chill: 29°   Ceiling: 3000
Heat Index: 34°   Visibility: 10mi
Dew Point: 21°   Wind: 6mph
Humidity: 59%   Direction: 10°N
Pressure: 30.27"   Gusts: NA
Location:  41.28°N, 73.03°W
Report Text: KHVN 201753Z 01005KT 10SM OVC030 01/M06 A3027 RMK AO2 SLP250 T00111061 10011 21033 58004
Loading
Personal Weather Stations






























Interactive Weather Map New forecast layout! Learn more

10-Day Weather Forecast

Advertisements
Track Severe Weather on mobile